»·PEaware :: AAL1220 KSNA-KSDM

AAL1220 :: KSNA-KSDM

FLIGHT INFORMATION

Flight Status: Arrived
Operator:
American Airlines
More flights by this operator :: More flights under this callsign
Pilot: Erik K. (18332)
Aircraft: BEECH AIRCRAFT BEECH AIRLINER
(B190)
More flights by this aircraft type
Origin: KSNA John Wayne-Orange Co
United States
Destination: KSDM Brown Mun
United States
More flights between these airports :: More routes between these airports
Route: V25 PACIF V208 LAX118 CARDI MZB320 MZB
File this flight plan on PilotEdge
Remarks: I-4
Altitude:
(Current/Filed)
5,000ft
Speed:
(Current/Filed)
228kts
Departed: 17-May-18 08:58 AM
Arrived: 17-May-18 09:32 AM
Distance/Time
Traveled:
80nm/0:34
Distance/Time
To Go:
Arrived

Flight Plot

Page will automatically refresh every two minutes.


Map Options




Map Legend


Flown Route
Filed Route
Departure Airport
Arrival Airport
Navaid (VOR, NDB)
Fix

Horizontal Profiles

Position Reports

Time Latitude Longitude Heading Altitude Ground
Speed
17-May-18 08:01 33.676116 -117.870873 219 61ft 0kts
17-May-18 08:02 33.676116 -117.870873 219 61ft 0kts
17-May-18 08:03 33.676116 -117.870873 219 61ft 0kts
17-May-18 08:04 33.676116 -117.870873 219 61ft 0kts
17-May-18 08:05 33.676116 -117.870873 219 61ft 0kts
17-May-18 08:06 33.676116 -117.870873 219 61ft 0kts
17-May-18 08:07 33.676116 -117.870873 219 61ft 0kts
17-May-18 08:08 33.676116 -117.870873 219 61ft 0kts
17-May-18 08:09 33.676116 -117.870873 219 61ft 0kts
17-May-18 08:10 33.676116 -117.870873 219 61ft 0kts
17-May-18 08:11 33.676116 -117.870873 219 61ft 0kts
17-May-18 08:12 33.676116 -117.870873 219 61ft 0kts
17-May-18 08:13 33.676116 -117.870873 219 61ft 0kts
17-May-18 08:14 33.676116 -117.870873 219 61ft 0kts
17-May-18 08:15 33.676116 -117.870873 219 61ft 0kts
17-May-18 08:16 33.676116 -117.870873 219 61ft 0kts
17-May-18 08:17 33.676116 -117.870873 219 61ft 0kts
17-May-18 08:18 33.676116 -117.870873 219 61ft 0kts
17-May-18 08:19 33.676116 -117.870873 219 61ft 0kts
17-May-18 08:20 33.676116 -117.870873 219 61ft 0kts
17-May-18 08:21 33.676116 -117.870873 219 61ft 0kts
17-May-18 08:22 33.676116 -117.870873 219 61ft 0kts
17-May-18 08:23 33.676116 -117.870873 219 61ft 0kts
17-May-18 08:24 33.676116 -117.870873 219 61ft 0kts
17-May-18 08:25 33.676116 -117.870873 219 61ft 0kts
17-May-18 08:26 33.676116 -117.870873 219 61ft 0kts
17-May-18 08:27 33.676116 -117.870873 219 61ft 0kts
17-May-18 08:28 33.676116 -117.870873 219 61ft 0kts
17-May-18 08:29 33.676116 -117.870873 219 61ft 0kts
17-May-18 08:30 33.676116 -117.870873 219 61ft 0kts
17-May-18 08:31 33.676116 -117.870873 219 61ft 0kts
17-May-18 08:32 33.676116 -117.870873 219 61ft 0kts
17-May-18 08:33 33.676116 -117.870873 219 61ft 0kts
17-May-18 08:34 33.676116 -117.870873 219 61ft 0kts
17-May-18 08:35 33.676116 -117.870873 219 61ft 0kts
17-May-18 08:36 33.676116 -117.870873 219 61ft 0kts
17-May-18 08:37 33.676116 -117.870873 219 61ft 0kts
17-May-18 08:38 33.676116 -117.870873 219 61ft 0kts
17-May-18 08:39 33.676116 -117.870873 219 61ft 0kts
17-May-18 08:40 33.676116 -117.870873 219 61ft 0kts
17-May-18 08:41 33.676116 -117.870873 219 61ft 0kts
17-May-18 08:42 33.676116 -117.870873 219 61ft 0kts
17-May-18 08:43 33.676116 -117.870873 219 61ft 0kts
17-May-18 08:44 33.676116 -117.870873 219 61ft 0kts
17-May-18 08:45 33.676116 -117.870873 219 61ft 0kts
17-May-18 08:46 33.676116 -117.870873 219 61ft 0kts
17-May-18 08:47 33.676116 -117.870873 219 61ft 0kts
17-May-18 08:48 33.676116 -117.870873 219 61ft 0kts
17-May-18 08:49 33.676116 -117.870873 219 61ft 0kts
17-May-18 08:50 33.676116 -117.870873 219 61ft 0kts
17-May-18 08:51 33.676106 -117.870883 219 61ft 1kts
17-May-18 08:52 33.676561 -117.869827 43 61ft 9kts
17-May-18 08:53 33.680140 -117.867688 27 61ft 17kts
17-May-18 08:54 33.681836 -117.866552 61 61ft 0kts
17-May-18 08:55 33.681836 -117.866552 61 61ft 0kts
17-May-18 08:56 33.681406 -117.866615 155 61ft 0kts
17-May-18 08:57 33.680664 -117.865789 169 61ft 12kts
17-May-18 08:58 33.650299 -117.882488 192 1227ft 198kts
17-May-18 08:59 33.583676 -117.890609 184 2328ft 254kts
17-May-18 09:00 33.514885 -117.897859 184 4308ft 247kts
17-May-18 09:01 33.443752 -117.906039 185 4859ft 277kts
17-May-18 09:02 33.378637 -117.863786 137 4853ft 284kts
17-May-18 09:03 33.323284 -117.804709 134 5441ft 216kts
17-May-18 09:04 33.295761 -117.767207 120 3888ft 146kts
17-May-18 09:05 33.282201 -117.723239 104 1433ft 141kts
17-May-18 09:06 33.264139 -117.690199 160 76ft 142kts
17-May-18 09:07 33.220434 -117.684656 146 2641ft 201kts
17-May-18 09:08 33.200591 -117.631367 76 5788ft 208kts
17-May-18 09:09 33.195309 -117.580252 158 9106ft 167kts
17-May-18 09:10 33.144861 -117.551641 142 8860ft 227kts
17-May-18 09:11 33.093014 -117.504609 142 8855ft 239kts
17-May-18 09:12 33.040415 -117.457005 142 8854ft 242kts
17-May-18 09:13 32.986808 -117.408586 142 8670ft 249kts
17-May-18 09:14 32.929910 -117.357385 142 7889ft 261kts
17-May-18 09:15 32.879085 -117.304913 108 6876ft 255kts
17-May-18 09:16 32.867145 -117.226866 99 6850ft 231kts
17-May-18 09:17 32.856420 -117.150011 99 6068ft 249kts
17-May-18 09:18 32.845814 -117.073046 99 4944ft 210kts
17-May-18 09:19 32.837616 -117.011876 98 4948ft 173kts
17-May-18 09:20 32.830035 -116.954931 98 4588ft 180kts
17-May-18 09:21 32.850660 -116.910672 355 4122ft 180kts
17-May-18 09:22 32.846025 -116.945571 198 3672ft 180kts
17-May-18 09:23 32.804551 -116.979389 226 2881ft 189kts
17-May-18 09:24 32.771802 -117.023226 229 2850ft 170kts
17-May-18 09:25 32.732583 -117.023711 136 2853ft 161kts
17-May-18 09:26 32.693576 -116.997310 163 2574ft 175kts
17-May-18 09:27 32.644363 -116.985948 170 1936ft 176kts
17-May-18 09:28 32.593163 -116.975313 169 1278ft 221kts
17-May-18 09:29 32.561806 -116.961099 221 1343ft 114kts
17-May-18 09:30 32.542667 -116.941428 254 1506ft 125kts
17-May-18 09:31 32.567250 -116.958945 348 1077ft 115kts
17-May-18 09:32 32.572807 -116.981767 277 516ft 35kts
17-May-18 09:33 32.570847 -116.984659 273 519ft 0kts
17-May-18 09:34 32.570847 -116.984659 273 519ft 0kts

Navigation Log

Ident Type
Flight plan parsing failed, navigation log unavailable